< < Back
Terminal Aerodrome Forecast


Current Version              Previous Versions:   1  2  3  4  5  6  7  8  9  

Terminal Aerodrome Forecast

766
FTUS42 KILM 161100 RRA
TAFFLO
TAF
KFLO 161142Z 1612/1712 36014G25KT P6SM FEW060
     FM161300 04015G26KT P6SM SKC
     FM162100 04008KT P6SM FEW035=



Latest METAR

237
SAUS70 KWBC 161900 RRB
MTRFLO
METAR KFLO 161853Z 05008KT 10SM CLR 14/M03 A3033 RMK AO2 SLP269
T01391033


USA.gov is the U.S. government's official web portal to all federal, state and local government web resources and services.